Time;durP1;ratioP1;P1;durP2;ratioP2;P2;SDS_P1;SDS_P2;PMS_P1;PMS_P2;Temp;Humidity;BMP_temperature;BMP_pressure;BME280_temperature;BME280_humidity;BME280_pressure;Samples;Min_cycle;Max_cycle;Signal;HPM_P1;HPM_P2
2022/03/04 00:01:50;;;;;;;32.20;14.60;;;;;;;;;;5960772;29;20051;-72
2022/03/04 00:04:53;;;;;;;30.25;14.95;;;;;;;;;;5961747;29;20057;-72
2022/03/04 00:08:00;;;;;;;31.92;15.30;;;;;;;;;;5960360;29;20070;-72
2022/03/04 00:11:03;;;;;;;33.17;14.55;;;;;;;;;;5961252;29;20047;-72
2022/03/04 00:14:08;;;;;;;27.83;14.68;;;;;;;;;;5960789;29;20376;-73
2022/03/04 00:17:13;;;;;;;29.03;14.13;;;;;;;;;;5959840;29;20164;-73
2022/03/04 00:20:17;;;;;;;32.33;15.05;;;;;;;;;;5962171;29;20351;-72
2022/03/04 00:23:21;;;;;;;29.75;14.45;;;;;;;;;;5960748;29;20071;-72
2022/03/04 00:26:27;;;;;;;35.03;15.95;;;;;;;;;;5961269;29;20062;-72
2022/03/04 00:29:30;;;;;;;33.72;16.33;;;;;;;;;;5961499;29;20053;-73
2022/03/04 00:32:33;;;;;;;32.05;14.85;;;;;;;;;;5960664;29;20104;-72
2022/03/04 00:35:36;;;;;;;31.25;15.70;;;;;;;;;;5960185;29;20142;-73
2022/03/04 00:38:43;;;;;;;33.70;15.77;;;;;;;;;;5959497;29;20383;-73
2022/03/04 00:41:46;;;;;;;32.50;15.18;;;;;;;;;;5961695;29;20051;-74
2022/03/04 00:44:50;;;;;;;34.42;15.85;;;;;;;;;;5960152;29;20100;-72
2022/03/04 00:47:53;;;;;;;33.85;16.50;;;;;;;;;;5959663;29;20043;-73
2022/03/04 00:50:56;;;;;;;33.25;15.00;;;;;;;;;;5959739;29;20046;-72
2022/03/04 00:54:01;;;;;;;34.13;16.73;;;;;;;;;;5961541;29;20457;-72
2022/03/04 00:57:06;;;;;;;34.10;17.58;;;;;;;;;;5959556;29;20050;-72
2022/03/04 01:00:10;;;;;;;37.03;17.10;;;;;;;;;;5959414;29;20051;-72
2022/03/04 01:03:13;;;;;;;37.85;16.75;;;;;;;;;;5960008;29;20555;-72
2022/03/04 01:06:16;;;;;;;45.30;18.52;;;;;;;;;;5959767;29;20483;-72
2022/03/04 01:09:21;;;;;;;36.13;18.50;;;;;;;;;;5958581;29;20208;-72
2022/03/04 01:12:24;;;;;;;37.22;17.23;;;;;;;;;;5960963;29;20408;-72
2022/03/04 01:15:27;;;;;;;36.67;17.05;;;;;;;;;;5961096;29;20446;-73
2022/03/04 01:18:30;;;;;;;32.60;16.42;;;;;;;;;;5958934;29;20172;-72
2022/03/04 01:21:34;;;;;;;37.13;17.02;;;;;;;;;;5958952;29;20857;-73
2022/03/04 01:24:39;;;;;;;36.10;18.15;;;;;;;;;;5961626;29;20054;-73
2022/03/04 01:27:42;;;;;;;37.83;16.55;;;;;;;;;;5959459;29;20414;-73
2022/03/04 01:30:46;;;;;;;37.83;16.13;;;;;;;;;;5959865;29;20407;-73
2022/03/04 01:33:49;;;;;;;38.15;16.30;;;;;;;;;;5959670;29;20410;-73
2022/03/04 01:36:54;;;;;;;30.90;15.57;;;;;;;;;;5959575;29;20047;-73
2022/03/04 01:39:59;;;;;;;35.72;16.67;;;;;;;;;;5943981;29;20051;-73
2022/03/04 01:43:02;;;;;;;33.75;15.80;;;;;;;;;;5960259;29;20078;-73
2022/03/04 01:46:09;;;;;;;38.70;16.08;;;;;;;;;;5959609;29;20047;-72
2022/03/04 01:49:13;;;;;;;31.83;15.82;;;;;;;;;;5960403;29;20058;-73
2022/03/04 01:52:18;;;;;;;31.17;15.20;;;;;;;;;;5958454;29;20055;-72
2022/03/04 01:55:23;;;;;;;30.83;14.77;;;;;;;;;;5959554;29;20047;-73
2022/03/04 01:58:26;;;;;;;32.58;15.15;;;;;;;;;;5960806;29;20522;-73
2022/03/04 02:01:32;;;;;;;32.00;17.17;;;;;;;;;;5958370;29;20055;-73
2022/03/04 02:04:38;;;;;;;30.17;15.73;;;;;;;;;;5960126;29;20123;-72
2022/03/04 02:07:41;;;;;;;33.50;15.60;;;;;;;;;;5960585;29;20108;-72
2022/03/04 02:10:45;;;;;;;37.38;16.77;;;;;;;;;;5967017;29;20134;-72
2022/03/04 02:13:49;;;;;;;35.83;16.88;;;;;;;;;;5972663;29;20159;-72
2022/03/04 02:16:54;;;;;;;33.45;16.48;;;;;;;;;;5960913;29;20112;-72
2022/03/04 02:19:58;;;;;;;31.58;16.55;;;;;;;;;;5960673;29;20414;-72
2022/03/04 02:23:03;;;;;;;33.95;17.42;;;;;;;;;;5959419;29;20047;-72
2022/03/04 02:26:05;;;;;;;36.03;17.45;;;;;;;;;;5960503;29;20122;-73
2022/03/04 02:29:11;;;;;;;35.55;17.73;;;;;;;;;;5964689;29;20047;-73
2022/03/04 02:32:14;;;;;;;34.33;18.48;;;;;;;;;;5962574;29;20054;-73
2022/03/04 02:35:18;;;;;;;36.72;18.80;;;;;;;;;;5963603;29;20050;-72
2022/03/04 02:38:23;;;;;;;35.67;18.70;;;;;;;;;;5964459;29;20462;-72
2022/03/04 02:41:26;;;;;;;41.17;19.17;;;;;;;;;;5964383;29;20051;-72
2022/03/04 02:44:29;;;;;;;37.47;19.38;;;;;;;;;;5961832;29;20188;-73
2022/03/04 02:47:35;;;;;;;35.85;18.88;;;;;;;;;;5962817;29;20051;-73
2022/03/04 02:50:39;;;;;;;39.25;20.02;;;;;;;;;;5962854;29;20055;-73
2022/03/04 02:53:43;;;;;;;37.65;18.58;;;;;;;;;;5961931;29;20494;-72
2022/03/04 02:56:46;;;;;;;38.80;20.88;;;;;;;;;;5961968;29;20062;-72
2022/03/04 02:59:50;;;;;;;39.00;19.90;;;;;;;;;;5964091;29;20058;-72
2022/03/04 03:02:53;;;;;;;41.65;19.52;;;;;;;;;;5963454;29;20491;-73
2022/03/04 03:05:58;;;;;;;35.67;19.92;;;;;;;;;;5961776;29;20068;-72
2022/03/04 03:09:03;;;;;;;43.30;20.10;;;;;;;;;;5962406;29;20707;-72
2022/03/04 03:12:08;;;;;;;42.63;20.80;;;;;;;;;;5962359;29;20482;-72
2022/03/04 03:15:12;;;;;;;39.92;19.88;;;;;;;;;;5962925;29;20617;-72
2022/03/04 03:18:16;;;;;;;38.88;20.25;;;;;;;;;;5961748;29;20502;-73
2022/03/04 03:21:19;;;;;;;39.10;20.83;;;;;;;;;;5963610;29;20055;-72
2022/03/04 03:24:26;;;;;;;39.80;20.80;;;;;;;;;;5961883;29;20062;-73
2022/03/04 03:27:30;;;;;;;37.78;19.40;;;;;;;;;;5962270;29;20200;-73
2022/03/04 03:30:33;;;;;;;42.45;20.30;;;;;;;;;;5963632;29;20117;-73
2022/03/04 03:33:37;;;;;;;36.65;19.73;;;;;;;;;;5962993;29;20089;-73
2022/03/04 03:36:40;;;;;;;38.50;19.67;;;;;;;;;;5961573;29;20059;-73
2022/03/04 03:39:45;;;;;;;38.25;21.17;;;;;;;;;;5961680;29;20104;-73
2022/03/04 03:42:49;;;;;;;41.07;22.10;;;;;;;;;;5961908;29;20491;-72
2022/03/04 03:45:51;;;;;;;41.70;21.00;;;;;;;;;;5962378;29;20047;-72
2022/03/04 03:48:55;;;;;;;39.28;20.27;;;;;;;;;;5962061;29;20108;-72
2022/03/04 03:51:58;;;;;;;38.95;19.65;;;;;;;;;;5961605;29;20061;-72
2022/03/04 03:55:03;;;;;;;36.67;19.08;;;;;;;;;;5962659;29;20666;-73
2022/03/04 03:58:08;;;;;;;37.80;20.42;;;;;;;;;;5960246;29;20099;-73
2022/03/04 04:01:12;;;;;;;40.83;20.00;;;;;;;;;;5961244;29;20414;-73
2022/03/04 04:04:16;;;;;;;39.78;21.15;;;;;;;;;;5961359;29;20525;-72
2022/03/04 04:07:20;;;;;;;40.97;21.30;;;;;;;;;;5960952;29;20051;-73
2022/03/04 04:10:24;;;;;;;39.95;20.60;;;;;;;;;;5960343;29;20051;-73
2022/03/04 04:13:28;;;;;;;43.05;19.88;;;;;;;;;;5962567;29;20047;-73
2022/03/04 04:16:34;;;;;;;41.85;20.67;;;;;;;;;;5962068;29;20061;-73
2022/03/04 04:19:40;;;;;;;40.30;20.63;;;;;;;;;;5959718;29;20503;-72
2022/03/04 04:22:47;;;;;;;44.67;20.77;;;;;;;;;;5962141;29;20071;-73
2022/03/04 04:25:52;;;;;;;46.72;21.88;;;;;;;;;;5962194;29;20066;-72
2022/03/04 04:28:55;;;;;;;41.33;20.65;;;;;;;;;;5961189;29;20062;-73
2022/03/04 04:32:00;;;;;;;42.63;20.60;;;;;;;;;;5961205;29;20532;-72
2022/03/04 04:35:04;;;;;;;36.50;18.98;;;;;;;;;;5961883;29;20510;-74
2022/03/04 04:38:07;;;;;;;42.25;20.58;;;;;;;;;;5960289;29;20411;-73
2022/03/04 04:41:12;;;;;;;39.60;20.30;;;;;;;;;;5960617;29;20146;-73
2022/03/04 04:44:15;;;;;;;36.63;19.67;;;;;;;;;;5961901;29;20587;-72
2022/03/04 04:47:18;;;;;;;43.00;21.52;;;;;;;;;;5960488;29;20051;-73
2022/03/04 04:50:21;;;;;;;42.83;20.00;;;;;;;;;;5960286;29;20061;-72
2022/03/04 04:53:24;;;;;;;39.58;19.50;;;;;;;;;;5959796;29;20483;-73
2022/03/04 04:56:32;;;;;;;39.22;19.42;;;;;;;;;;5961568;29;20054;-72
2022/03/04 04:59:35;;;;;;;43.40;20.40;;;;;;;;;;5959680;29;20102;-73
2022/03/04 05:02:38;;;;;;;42.78;19.33;;;;;;;;;;5960103;29;20054;-72
2022/03/04 05:05:44;;;;;;;39.45;20.00;;;;;;;;;;5961410;29;20206;-72
2022/03/04 05:08:47;;;;;;;41.97;20.83;;;;;;;;;;5960983;29;20063;-72
2022/03/04 05:11:54;;;;;;;45.15;19.52;;;;;;;;;;5960120;29;20057;-73
2022/03/04 05:14:57;;;;;;;40.67;19.52;;;;;;;;;;5959583;29;20058;-73
2022/03/04 05:18:00;;;;;;;44.72;19.95;;;;;;;;;;5961193;29;20063;-73
2022/03/04 05:21:06;;;;;;;40.78;20.52;;;;;;;;;;5960596;29;20422;-72
2022/03/04 05:24:11;;;;;;;37.42;19.27;;;;;;;;;;5960094;29;20072;-73
2022/03/04 05:27:16;;;;;;;36.08;18.98;;;;;;;;;;5961249;29;20051;-73
2022/03/04 05:30:19;;;;;;;40.65;20.17;;;;;;;;;;5960787;29;20088;-73
2022/03/04 05:33:23;;;;;;;39.22;19.73;;;;;;;;;;5960096;29;20099;-73
2022/03/04 05:36:26;;;;;;;39.20;19.73;;;;;;;;;;5959648;29;20159;-73
2022/03/04 05:39:29;;;;;;;41.35;19.67;;;;;;;;;;5960956;29;20058;-71
2022/03/04 05:42:34;;;;;;;47.55;22.55;;;;;;;;;;5960745;29;20061;-72
2022/03/04 05:45:40;;;;;;;42.75;21.45;;;;;;;;;;5967314;29;20067;-72
2022/03/04 05:48:43;;;;;;;44.92;21.63;;;;;;;;;;5961840;29;20058;-72
2022/03/04 05:51:46;;;;;;;41.75;20.48;;;;;;;;;;5959195;29;20046;-72
2022/03/04 05:54:49;;;;;;;43.17;20.42;;;;;;;;;;5959563;29;20066;-72
2022/03/04 05:57:54;;;;;;;47.72;22.10;;;;;;;;;;5960761;29;20517;-72
2022/03/04 06:00:57;;;;;;;40.85;20.10;;;;;;;;;;5962060;29;20058;-72
2022/03/04 06:04:02;;;;;;;41.03;20.58;;;;;;;;;;5962983;29;20058;-71
2022/03/04 06:07:05;;;;;;;39.92;21.27;;;;;;;;;;5964396;29;20049;-72
2022/03/04 06:10:09;;;;;;;43.05;22.25;;;;;;;;;;5964716;29;20058;-72
2022/03/04 06:13:16;;;;;;;41.70;20.98;;;;;;;;;;5964579;29;20043;-72
2022/03/04 06:16:20;;;;;;;42.63;22.98;;;;;;;;;;5963663;29;20058;-72
2022/03/04 06:19:23;;;;;;;44.88;23.42;;;;;;;;;;5964802;29;20038;-73
2022/03/04 06:22:27;;;;;;;48.13;23.95;;;;;;;;;;5964712;29;20058;-72
2022/03/04 06:25:30;;;;;;;46.42;23.05;;;;;;;;;;5963518;29;20042;-73
2022/03/04 06:28:35;;;;;;;47.90;23.45;;;;;;;;;;5964092;29;20051;-72
2022/03/04 06:31:41;;;;;;;44.90;24.58;;;;;;;;;;5963659;29;20051;-73
2022/03/04 06:34:45;;;;;;;42.15;22.85;;;;;;;;;;5963682;29;20082;-72
2022/03/04 06:37:47;;;;;;;45.97;24.38;;;;;;;;;;5963371;29;20047;-73
2022/03/04 06:40:51;;;;;;;45.60;24.05;;;;;;;;;;5962774;29;20047;-73
2022/03/04 06:43:56;;;;;;;43.25;22.35;;;;;;;;;;5963908;29;20094;-73
2022/03/04 06:47:01;;;;;;;43.17;22.10;;;;;;;;;;5961607;29;20066;-72
2022/03/04 06:50:05;;;;;;;44.35;23.08;;;;;;;;;;5964253;29;20131;-73
2022/03/04 06:53:11;;;;;;;40.75;22.80;;;;;;;;;;5963077;29;20403;-74
2022/03/04 06:56:16;;;;;;;44.78;23.02;;;;;;;;;;5961846;29;20111;-73
2022/03/04 06:59:27;;;;;;;42.80;23.23;;;;;;;;;;5962760;29;20050;-73
2022/03/04 07:02:32;;;;;;;42.85;23.73;;;;;;;;;;5962917;29;20086;-73
2022/03/04 07:05:38;;;;;;;;;;;;;;;;;;5964327;29;20047;-74
2022/03/04 07:08:41;;;;;;;41.95;22.00;;;;;;;;;;5961068;29;20404;-73
2022/03/04 07:11:44;;;;;;;48.80;24.33;;;;;;;;;;5961906;29;20250;-74
2022/03/04 07:14:49;;;;;;;43.83;24.73;;;;;;;;;;5962406;29;20081;-73
2022/03/04 07:17:53;;;;;;;47.97;24.45;;;;;;;;;;5962897;29;20498;-73
2022/03/04 07:20:56;;;;;;;46.80;24.52;;;;;;;;;;5962799;29;20046;-73
2022/03/04 07:24:00;;;;;;;48.75;26.05;;;;;;;;;;5963725;29;20051;-73
2022/03/04 07:27:05;;;;;;;49.35;24.63;;;;;;;;;;5961841;29;20058;-73
2022/03/04 07:30:12;;;;;;;46.20;24.67;;;;;;;;;;5960724;29;20054;-74
2022/03/04 07:33:15;;;;;;;50.90;25.88;;;;;;;;;;5961779;29;20047;-73
2022/03/04 07:36:19;;;;;;;45.58;24.10;;;;;;;;;;5961868;29;20092;-74
2022/03/04 07:39:24;;;;;;;51.55;25.83;;;;;;;;;;5960731;29;20062;-73
2022/03/04 07:42:27;;;;;;;40.40;22.42;;;;;;;;;;5960838;29;20484;-73
2022/03/04 07:45:32;;;;;;;42.75;21.67;;;;;;;;;;5963239;29;20083;-73
2022/03/04 07:48:35;;;;;;;44.53;23.55;;;;;;;;;;5961142;29;20062;-74
2022/03/04 07:51:39;;;;;;;40.25;21.70;;;;;;;;;;5961769;29;20058;-73
2022/03/04 07:54:42;;;;;;;37.03;21.95;;;;;;;;;;5961585;29;20054;-74
2022/03/04 07:57:45;;;;;;;39.85;21.15;;;;;;;;;;5961138;29;20057;-73
2022/03/04 08:00:50;;;;;;;39.50;22.25;;;;;;;;;;5960002;29;20507;-73
2022/03/04 08:04:16;;;;;;;43.88;22.83;;;;;;;;;;5960313;29;20379;-73
2022/03/04 08:07:19;;;;;;;37.78;20.80;;;;;;;;;;5960861;29;20062;-73
2022/03/04 08:10:24;;;;;;;40.70;22.25;;;;;;;;;;5959898;29;20081;-71
2022/03/04 08:13:28;;;;;;;43.63;22.02;;;;;;;;;;5959949;29;20047;-73
2022/03/04 08:16:33;;;;;;;41.05;22.48;;;;;;;;;;5961134;29;20051;-72
2022/03/04 08:19:39;;;;;;;42.53;22.05;;;;;;;;;;5961055;29;20085;-72
2022/03/04 08:22:44;;;;;;;40.47;22.40;;;;;;;;;;5957875;29;20043;-71
2022/03/04 08:25:49;;;;;;;41.20;23.50;;;;;;;;;;5957512;29;20403;-72
2022/03/04 08:28:53;;;;;;;40.67;22.92;;;;;;;;;;5957551;29;20259;-72
2022/03/04 08:31:58;;;;;;;41.45;23.50;;;;;;;;;;5958547;29;20133;-72
2022/03/04 08:35:01;;;;;;;39.92;22.80;;;;;;;;;;5955497;29;20511;-72
2022/03/04 08:38:07;;;;;;;38.08;21.35;;;;;;;;;;5957909;29;20663;-72
2022/03/04 08:41:10;;;;;;;46.08;22.98;;;;;;;;;;5956999;29;20039;-72
2022/03/04 08:44:13;;;;;;;40.05;21.77;;;;;;;;;;5956706;29;20059;-72
2022/03/04 08:47:18;;;;;;;38.60;21.00;;;;;;;;;;5958822;29;20046;-73
2022/03/04 08:50:24;;;;;;;37.65;20.63;;;;;;;;;;5958740;29;20135;-72
2022/03/04 08:53:27;;;;;;;35.10;20.00;;;;;;;;;;5960171;29;20130;-72
2022/03/04 08:56:33;;;;;;;40.33;20.70;;;;;;;;;;5958144;29;20418;-73
2022/03/04 08:59:36;;;;;;;36.63;21.70;;;;;;;;;;5959428;29;20051;-73
2022/03/04 09:02:43;;;;;;;40.33;21.45;;;;;;;;;;5960737;29;20078;-72
2022/03/04 09:05:46;;;;;;;40.13;23.10;;;;;;;;;;5969088;29;20046;-74
2022/03/04 09:08:50;;;;;;;34.50;20.20;;;;;;;;;;5920594;29;1295641;-72
2022/03/04 09:11:53;;;;;;;38.05;22.25;;;;;;;;;;5961885;29;20047;-72
2022/03/04 09:14:58;;;;;;;37.65;21.60;;;;;;;;;;5959662;29;20124;-72
2022/03/04 09:18:03;;;;;;;36.15;20.73;;;;;;;;;;5960037;29;20502;-72
2022/03/04 09:21:10;;;;;;;37.25;20.13;;;;;;;;;;5961310;29;20089;-72
2022/03/04 09:24:13;;;;;;;39.92;21.77;;;;;;;;;;5961051;29;20411;-71
2022/03/04 09:27:16;;;;;;;38.42;20.85;;;;;;;;;;5958414;29;20070;-72
2022/03/04 09:30:19;;;;;;;33.35;19.88;;;;;;;;;;5959671;29;20057;-72
2022/03/04 09:33:24;;;;;;;35.35;20.75;;;;;;;;;;5944975;29;20155;-73
2022/03/04 09:36:27;;;;;;;38.83;22.05;;;;;;;;;;5957740;29;20464;-72
2022/03/04 09:39:30;;;;;;;39.05;22.20;;;;;;;;;;5958604;29;20051;-73
2022/03/04 09:42:34;;;;;;;38.10;21.60;;;;;;;;;;5959419;29;20518;-71
2022/03/04 09:45:37;;;;;;;41.53;21.88;;;;;;;;;;5960471;29;20495;-72
2022/03/04 09:48:44;;;;;;;38.38;21.85;;;;;;;;;;5959295;29;20066;-72
2022/03/04 09:51:47;;;;;;;41.13;21.77;;;;;;;;;;5960687;29;20066;-73
2022/03/04 09:54:53;;;;;;;40.47;23.17;;;;;;;;;;5959379;29;20051;-72
2022/03/04 09:57:58;;;;;;;42.70;23.33;;;;;;;;;;5959548;29;20071;-73
2022/03/04 10:01:01;;;;;;;41.40;21.58;;;;;;;;;;5959979;29;20675;-73
2022/03/04 10:04:07;;;;;;;40.20;22.40;;;;;;;;;;5960787;29;20244;-72
2022/03/04 10:07:10;;;;;;;42.55;22.98;;;;;;;;;;5958781;29;20133;-73
2022/03/04 10:10:15;;;;;;;40.42;22.75;;;;;;;;;;5957189;29;20078;-73
2022/03/04 10:13:19;;;;;;;41.00;23.00;;;;;;;;;;5958490;29;20062;-73
2022/03/04 10:16:23;;;;;;;44.08;23.65;;;;;;;;;;5957335;29;20073;-73
2022/03/04 10:19:29;;;;;;;46.10;22.75;;;;;;;;;;5957319;29;20070;-72
2022/03/04 10:22:34;;;;;;;37.80;22.42;;;;;;;;;;5958077;29;20082;-73
2022/03/04 10:25:37;;;;;;;37.70;22.02;;;;;;;;;;5958332;29;20404;-73
2022/03/04 10:28:48;;;;;;;36.45;21.60;;;;;;;;;;5956812;29;20517;-73
2022/03/04 10:32:08;;;;;;;38.35;21.05;;;;;;;;;;5956008;29;20051;-73
2022/03/04 10:35:22;;;;;;;40.60;21.75;;;;;;;;;;5957658;29;20046;-72
2022/03/04 10:38:25;;;;;;;38.70;23.48;;;;;;;;;;5958025;29;20058;-74
2022/03/04 10:41:33;;;;;;;;;;;;;;;;;;5959092;29;20094;-72
2022/03/04 10:44:39;;;;;;;40.97;22.13;;;;;;;;;;5959112;29;19925;-73
2022/03/04 10:47:44;;;;;;;40.60;22.85;;;;;;;;;;5961457;29;20856;-75
2022/03/04 10:50:49;;;;;;;38.60;23.00;;;;;;;;;;5964277;29;20533;-72
2022/03/04 10:53:52;;;;;;;41.25;24.35;;;;;;;;;;5962505;29;20081;-72
2022/03/04 10:56:56;;;;;;;41.55;24.30;;;;;;;;;;5963894;29;20062;-72
2022/03/04 10:59:59;;;;;;;37.97;23.00;;;;;;;;;;5963099;29;20046;-72
2022/03/04 11:03:02;;;;;;;40.50;23.50;;;;;;;;;;5962988;29;20054;-72
2022/03/04 11:06:10;;;;;;;38.15;22.75;;;;;;;;;;5961638;29;20490;-73
2022/03/04 11:09:13;;;;;;;39.47;23.70;;;;;;;;;;5963639;29;20069;-72
2022/03/04 11:12:16;;;;;;;38.85;22.35;;;;;;;;;;5962288;29;20335;-72
2022/03/04 11:15:21;;;;;;;38.88;23.27;;;;;;;;;;5962259;29;20059;-73
2022/03/04 11:18:24;;;;;;;39.80;23.48;;;;;;;;;;5962075;29;20051;-72
2022/03/04 11:21:29;;;;;;;41.75;23.70;;;;;;;;;;5962224;29;20162;-72
2022/03/04 11:24:36;;;;;;;38.42;23.67;;;;;;;;;;5960953;29;20110;-72
2022/03/04 11:27:40;;;;;;;42.83;22.98;;;;;;;;;;5961716;29;20057;-72
2022/03/04 11:30:45;;;;;;;44.13;22.90;;;;;;;;;;5963084;29;20218;-72
2022/03/04 11:33:51;;;;;;;40.10;23.40;;;;;;;;;;5961698;29;20066;-72
2022/03/04 11:37:03;;;;;;;41.88;23.55;;;;;;;;;;5960255;29;20577;-71
2022/03/04 11:40:32;;;;;;;41.80;24.65;;;;;;;;;;5963294;29;20051;-72
2022/03/04 11:43:44;;;;;;;44.70;25.15;;;;;;;;;;5963097;29;20071;-72
2022/03/04 11:46:51;;;;;;;43.13;24.67;;;;;;;;;;5962774;29;20055;-72
2022/03/04 11:49:55;;;;;;;47.03;25.75;;;;;;;;;;5961161;29;20062;-72
2022/03/04 11:53:16;;;;;;;44.15;26.13;;;;;;;;;;5961545;29;20061;-71
2022/03/04 11:56:24;;;;;;;47.40;26.55;;;;;;;;;;5963223;29;20471;-71
2022/03/04 11:59:28;;;;;;;47.80;27.88;;;;;;;;;;5961405;29;20419;-73
2022/03/04 12:02:34;;;;;;;;;;;;;;;;;;5961687;29;20486;-73
2022/03/04 12:05:38;;;;;;;43.90;24.77;;;;;;;;;;5961403;29;20393;-73
2022/03/04 12:08:43;;;;;;;47.35;25.17;;;;;;;;;;5961154;29;20088;-73
2022/03/04 12:12:01;;;;;;;46.15;26.05;;;;;;;;;;5960850;29;20046;-72
2022/03/04 12:15:38;;;;;;;48.10;27.05;;;;;;;;;;5960223;29;20061;-72
2022/03/04 12:18:42;;;;;;;48.42;25.85;;;;;;;;;;5892879;30;20056;-73
2022/03/04 12:21:47;;;;;;;50.45;25.60;;;;;;;;;;5878181;30;20117;-73
2022/03/04 12:24:56;;;;;;;50.42;27.30;;;;;;;;;;5957846;29;20422;-73
2022/03/04 12:27:59;;;;;;;50.42;27.10;;;;;;;;;;5961829;29;20088;-72
2022/03/04 12:31:16;;;;;;;49.28;27.20;;;;;;;;;;5958596;29;20491;-72
2022/03/04 12:34:21;;;;;;;51.50;26.73;;;;;;;;;;5965742;29;20070;-71
2022/03/04 12:37:25;;;;;;;45.97;25.80;;;;;;;;;;5973855;29;20442;-74
2022/03/04 12:40:30;;;;;;;48.38;26.30;;;;;;;;;;5959686;29;20131;-71
2022/03/04 12:43:33;;;;;;;43.72;26.63;;;;;;;;;;5959352;29;20104;-71
2022/03/04 12:46:37;;;;;;;49.38;27.83;;;;;;;;;;5960265;29;20051;-73
2022/03/04 12:49:41;;;;;;;49.35;27.95;;;;;;;;;;5961557;29;20054;-71
2022/03/04 12:52:44;;;;;;;50.55;27.38;;;;;;;;;;5960334;29;20078;-72
2022/03/04 12:55:50;;;;;;;50.53;27.92;;;;;;;;;;5961579;29;20555;-73
2022/03/04 12:58:56;;;;;;;45.00;24.42;;;;;;;;;;5958861;29;20055;-73
2022/03/04 13:02:00;;;;;;;46.60;26.65;;;;;;;;;;5960029;29;20483;-72
2022/03/04 13:05:05;;;;;;;50.00;28.42;;;;;;;;;;5961076;29;20043;-74
2022/03/04 13:08:13;;;;;;;52.85;29.30;;;;;;;;;;5958054;29;20139;-72
2022/03/04 13:11:18;;;;;;;48.40;28.05;;;;;;;;;;5959709;29;20697;-72
2022/03/04 13:14:22;;;;;;;46.13;26.98;;;;;;;;;;5960153;29;20070;-71
2022/03/04 13:17:25;;;;;;;50.90;28.25;;;;;;;;;;5960558;29;20391;-73
2022/03/04 13:20:28;;;;;;;52.78;30.45;;;;;;;;;;5959519;29;20459;-72
2022/03/04 13:23:31;;;;;;;53.17;29.48;;;;;;;;;;5961180;29;20051;-72
2022/03/04 13:26:45;;;;;;;45.63;26.50;;;;;;;;;;5959993;29;20082;-72
2022/03/04 13:29:49;;;;;;;49.92;28.02;;;;;;;;;;5959528;29;20171;-72
2022/03/04 13:32:55;;;;;;;50.78;28.70;;;;;;;;;;5960831;29;20410;-73
2022/03/04 13:35:59;;;;;;;47.92;28.95;;;;;;;;;;5961720;29;20078;-72
2022/03/04 13:39:10;;;;;;;51.40;28.75;;;;;;;;;;5960278;29;20503;-72
2022/03/04 13:42:22;;;;;;;51.78;29.00;;;;;;;;;;5959520;29;20050;-72
2022/03/04 13:45:30;;;;;;;50.72;29.70;;;;;;;;;;5959393;29;20078;-72
2022/03/04 13:48:33;;;;;;;55.22;33.00;;;;;;;;;;5959348;29;20047;-72
2022/03/04 13:51:38;;;;;;;55.75;29.92;;;;;;;;;;5959575;29;20130;-71
2022/03/04 13:54:53;;;;;;;48.92;28.35;;;;;;;;;;5960302;29;20103;-71
2022/03/04 13:58:01;;;;;;;51.08;28.98;;;;;;;;;;5959496;29;20060;-71
2022/03/04 14:01:07;;;;;;;50.42;28.95;;;;;;;;;;5960574;29;20057;-72
2022/03/04 14:04:11;;;;;;;51.60;29.38;;;;;;;;;;5958717;29;20087;-72
2022/03/04 14:07:17;;;;;;;51.30;29.23;;;;;;;;;;5960315;29;20046;-72
2022/03/04 14:10:20;;;;;;;49.58;28.38;;;;;;;;;;5960824;29;20051;-73
2022/03/04 14:13:24;;;;;;;48.13;28.10;;;;;;;;;;5959282;29;20075;-73
2022/03/04 14:16:33;;;;;;;45.42;26.15;;;;;;;;;;5958138;29;20066;-74
2022/03/04 14:19:39;;;;;;;50.10;29.08;;;;;;;;;;5960497;29;20051;-72
2022/03/04 14:22:43;;;;;;;50.67;28.05;;;;;;;;;;5963055;29;20513;-72
2022/03/04 14:25:47;;;;;;;40.72;22.20;;;;;;;;;;5963129;29;20055;-72
2022/03/04 14:32:09;;;;;;;36.25;22.20;;;;;;;;;;5963463;29;20058;-74
2022/03/04 14:35:13;;;;;;;38.97;23.83;;;;;;;;;;5964362;29;20428;-72
2022/03/04 14:38:16;;;;;;;39.22;23.13;;;;;;;;;;5962063;29;20057;-72
2022/03/04 14:41:19;;;;;;;42.25;24.98;;;;;;;;;;5963806;29;20436;-73
2022/03/04 14:44:24;;;;;;;45.70;24.17;;;;;;;;;;5962954;29;20483;-72
2022/03/04 14:47:27;;;;;;;49.22;27.08;;;;;;;;;;5961297;29;20082;-74
2022/03/04 14:50:36;;;;;;;51.05;27.73;;;;;;;;;;5962864;29;20054;-74
2022/03/04 14:53:39;;;;;;;52.55;29.08;;;;;;;;;;5962666;29;20418;-73
2022/03/04 14:56:44;;;;;;;48.87;28.80;;;;;;;;;;5961535;29;20104;-74
2022/03/04 14:59:50;;;;;;;55.33;29.40;;;;;;;;;;5963109;29;20058;-74
2022/03/04 15:02:53;;;;;;;49.97;27.98;;;;;;;;;;5963746;29;20068;-73
2022/03/04 15:05:56;;;;;;;51.28;28.00;;;;;;;;;;5963553;29;20050;-72
2022/03/04 15:09:00;;;;;;;53.58;30.38;;;;;;;;;;5958942;29;20414;-72
2022/03/04 15:12:24;;;;;;;45.60;27.42;;;;;;;;;;5961002;29;20050;-74
2022/03/04 15:15:28;;;;;;;48.88;29.35;;;;;;;;;;5961076;29;20054;-71
2022/03/04 15:18:31;;;;;;;49.35;29.02;;;;;;;;;;5958854;29;20050;-73
2022/03/04 15:21:34;;;;;;;50.45;29.58;;;;;;;;;;5959950;29;20051;-71
2022/03/04 15:24:37;;;;;;;52.40;30.52;;;;;;;;;;5963462;29;20406;-74
2022/03/04 15:27:43;;;;;;;52.30;29.40;;;;;;;;;;5962154;29;20516;-72
2022/03/04 15:30:50;;;;;;;52.47;28.90;;;;;;;;;;5960263;29;20058;-73
2022/03/04 15:33:54;;;;;;;51.70;29.58;;;;;;;;;;5962970;29;20073;-73
2022/03/04 15:36:57;;;;;;;47.45;27.98;;;;;;;;;;5962048;29;20053;-74
2022/03/04 15:40:00;;;;;;;52.42;29.60;;;;;;;;;;5960668;29;20507;-74
2022/03/04 15:43:06;;;;;;;49.63;28.30;;;;;;;;;;5960845;29;20050;-72
2022/03/04 15:46:10;;;;;;;50.47;29.23;;;;;;;;;;5961813;29;20414;-73
2022/03/04 15:49:14;;;;;;;48.05;28.30;;;;;;;;;;5962890;29;20061;-73
2022/03/04 15:52:17;;;;;;;49.92;27.98;;;;;;;;;;5959738;29;20098;-74
2022/03/04 15:55:21;;;;;;;48.55;28.05;;;;;;;;;;5961652;29;20059;-72
2022/03/04 15:58:25;;;;;;;51.20;29.88;;;;;;;;;;5967226;29;20039;-73
2022/03/04 16:01:31;;;;;;;43.03;23.83;;;;;;;;;;5973650;29;20522;-73
2022/03/04 16:04:34;;;;;;;44.58;25.85;;;;;;;;;;5961252;29;20058;-74
2022/03/04 16:07:37;;;;;;;45.00;24.13;;;;;;;;;;5962902;29;20047;-74
2022/03/04 16:10:40;;;;;;;44.92;23.95;;;;;;;;;;5959997;29;20137;-72
2022/03/04 16:13:45;;;;;;;42.90;25.25;;;;;;;;;;5959333;29;20410;-72
2022/03/04 16:16:49;;;;;;;44.58;24.73;;;;;;;;;;5962400;29;20571;-72
2022/03/04 16:19:53;;;;;;;44.47;25.88;;;;;;;;;;5961133;29;20418;-72
2022/03/04 16:22:56;;;;;;;46.30;25.95;;;;;;;;;;5960411;29;20053;-72
2022/03/04 16:25:59;;;;;;;47.20;26.35;;;;;;;;;;5962308;29;20048;-72
2022/03/04 16:29:03;;;;;;;51.72;26.88;;;;;;;;;;5962129;29;20079;-72
2022/03/04 16:32:09;;;;;;;48.40;25.52;;;;;;;;;;5959019;29;20411;-73
2022/03/04 16:35:12;;;;;;;;;;;;;;;;;;5957821;29;20055;-73
2022/03/04 16:38:16;;;;;;;51.70;27.02;;;;;;;;;;5960549;29;19929;-73
2022/03/04 16:41:19;;;;;;;51.70;28.02;;;;;;;;;;5958584;29;20055;-72
2022/03/04 16:44:23;;;;;;;49.63;27.65;;;;;;;;;;5957806;29;20570;-72
2022/03/04 16:47:27;;;;;;;58.38;29.25;;;;;;;;;;5960234;29;20058;-71
2022/03/04 16:50:31;;;;;;;54.50;29.20;;;;;;;;;;5961875;29;20120;-72
2022/03/04 16:53:34;;;;;;;54.83;29.73;;;;;;;;;;5958782;29;20082;-73
2022/03/04 16:56:37;;;;;;;50.42;27.92;;;;;;;;;;5960842;29;20050;-72
2022/03/04 16:59:42;;;;;;;49.27;26.90;;;;;;;;;;5960612;29;20192;-71
2022/03/04 17:02:47;;;;;;;48.03;25.98;;;;;;;;;;5960188;29;20058;-72
2022/03/04 17:05:51;;;;;;;51.40;27.03;;;;;;;;;;5960006;29;20047;-72
2022/03/04 17:08:56;;;;;;;44.35;24.80;;;;;;;;;;5960294;29;20454;-72
2022/03/04 17:12:02;;;;;;;45.05;25.08;;;;;;;;;;5960499;29;20055;-72
2022/03/04 17:15:06;;;;;;;42.33;24.23;;;;;;;;;;5960038;29;20062;-72
2022/03/04 17:18:11;;;;;;;;;;;;;;;;;;5960294;29;20057;-72
2022/03/04 17:21:16;;;;;;;46.55;26.23;;;;;;;;;;5960150;29;20338;-72
2022/03/04 17:24:19;;;;;;;51.67;28.90;;;;;;;;;;5959612;29;20054;-72
2022/03/04 17:27:23;;;;;;;54.00;28.98;;;;;;;;;;5959733;29;20722;-72
2022/03/04 17:30:29;;;;;;;53.75;29.17;;;;;;;;;;5960091;29;20554;-72
2022/03/04 17:33:33;;;;;;;50.20;26.75;;;;;;;;;;5959867;29;20706;-73
2022/03/04 17:36:38;;;;;;;51.50;25.88;;;;;;;;;;5959339;29;20047;-72
2022/03/04 17:39:42;;;;;;;50.40;27.10;;;;;;;;;;5959686;29;20047;-72
2022/03/04 17:42:45;;;;;;;53.90;27.73;;;;;;;;;;5961224;29;20520;-72
2022/03/04 17:45:48;;;;;;;55.63;27.40;;;;;;;;;;5960593;29;20047;-72
2022/03/04 17:48:53;;;;;;;50.58;27.38;;;;;;;;;;5959963;29;20069;-73
2022/03/04 17:51:58;;;;;;;56.17;29.98;;;;;;;;;;5960983;29;20111;-73
2022/03/04 17:55:01;;;;;;;51.63;28.83;;;;;;;;;;5961780;29;20051;-71
2022/03/04 17:58:04;;;;;;;61.35;30.30;;;;;;;;;;5962360;29;20407;-72
2022/03/04 18:01:08;;;;;;;58.92;28.52;;;;;;;;;;5964123;29;20161;-74